Time;durP1;ratioP1;P1;durP2;ratioP2;P2;SDS_P1;SDS_P2;PMS_P1;PMS_P2;Temp;Humidity;BMP_temperature;BMP_pressure;BME280_temperature;BME280_humidity;BME280_pressure;Samples;Min_cycle;Max_cycle;Signal;HPM_P1;HPM_P2
2023/09/17 00:00:09;;;;;;;28.90;20.00;;;;;;;;;;5046780;28;20025;-57
2023/09/17 00:02:37;;;;;;;29.92;19.63;;;;;;;;;;5048613;28;20025;-56
2023/09/17 00:05:03;;;;;;;26.98;19.30;;;;;;;;;;5034476;28;20025;-53
2023/09/17 00:07:29;;;;;;;25.58;17.75;;;;;;;;;;5047611;28;20473;-57
2023/09/17 00:09:55;;;;;;;24.77;18.45;;;;;;;;;;5047532;28;20045;-56
2023/09/17 00:12:21;;;;;;;27.05;18.02;;;;;;;;;;5053004;28;20044;-55
2023/09/17 00:14:46;;;;;;;24.85;17.90;;;;;;;;;;5042151;28;20079;-57
2023/09/17 00:17:12;;;;;;;22.88;17.52;;;;;;;;;;5048506;28;20128;-56
2023/09/17 00:19:37;;;;;;;26.48;17.92;;;;;;;;;;5052048;28;20059;-57
2023/09/17 00:22:04;;;;;;;24.50;16.27;;;;;;;;;;5051716;28;20108;-55
2023/09/17 00:24:29;;;;;;;26.60;19.00;;;;;;;;;;5042778;28;20037;-58
2023/09/17 00:26:54;;;;;;;33.83;20.15;;;;;;;;;;5040385;28;20037;-54
2023/09/17 00:29:23;;;;;;;31.83;20.75;;;;;;;;;;5049478;28;20033;-57
2023/09/17 00:31:48;;;;;;;31.40;20.92;;;;;;;;;;5051991;28;20082;-57
2023/09/17 00:34:13;;;;;;;32.50;20.65;;;;;;;;;;5052083;28;20037;-56
2023/09/17 00:36:39;;;;;;;35.63;22.30;;;;;;;;;;5051897;28;20037;-58
2023/09/17 00:39:04;;;;;;;36.95;22.90;;;;;;;;;;5053367;28;20039;-55
2023/09/17 00:41:30;;;;;;;37.92;23.08;;;;;;;;;;5043781;28;20091;-56
2023/09/17 00:43:55;;;;;;;34.25;22.38;;;;;;;;;;5050657;28;20039;-56
2023/09/17 00:46:20;;;;;;;33.55;20.73;;;;;;;;;;5046968;28;20033;-56
2023/09/17 00:48:46;;;;;;;30.80;20.48;;;;;;;;;;5049644;28;20539;-56
2023/09/17 00:51:11;;;;;;;25.45;18.33;;;;;;;;;;5050410;28;20108;-56
2023/09/17 00:53:40;;;;;;;23.65;17.10;;;;;;;;;;5050623;28;20148;-56
2023/09/17 00:56:06;;;;;;;21.92;16.30;;;;;;;;;;5044276;28;20450;-56
2023/09/17 00:58:33;;;;;;;21.05;16.02;;;;;;;;;;5046010;28;20041;-56
2023/09/17 01:00:59;;;;;;;20.52;16.13;;;;;;;;;;5050652;28;20025;-57
2023/09/17 01:03:27;;;;;;;20.70;15.93;;;;;;;;;;5050111;28;20433;-56
2023/09/17 01:05:53;;;;;;;19.92;16.00;;;;;;;;;;5047705;28;20113;-54
2023/09/17 01:08:20;;;;;;;22.55;17.08;;;;;;;;;;5048587;28;20060;-58
2023/09/17 01:10:48;;;;;;;21.23;16.40;;;;;;;;;;5035776;28;20119;-56
2023/09/17 01:13:14;;;;;;;22.45;16.65;;;;;;;;;;5049144;28;20394;-57
2023/09/17 01:15:40;;;;;;;20.27;16.02;;;;;;;;;;5045196;28;20048;-57
2023/09/17 01:18:09;;;;;;;23.10;16.30;;;;;;;;;;5047251;28;20106;-56
2023/09/17 01:20:54;;;;;;;21.42;16.75;;;;;;;;;;5051188;28;20040;-57
2023/09/17 01:23:30;;;;;;;22.70;15.63;;;;;;;;;;5052360;28;20028;-56
2023/09/17 01:26:12;;;;;;;21.75;16.70;;;;;;;;;;5047023;28;20026;-56
2023/09/17 01:28:38;;;;;;;19.10;15.07;;;;;;;;;;5043002;28;20068;-56
2023/09/17 01:31:05;;;;;;;21.00;15.13;;;;;;;;;;5049957;28;20193;-55
2023/09/17 01:33:30;;;;;;;19.70;15.25;;;;;;;;;;5047691;28;20047;-57
2023/09/17 01:36:02;;;;;;;21.88;15.35;;;;;;;;;;5052329;28;20389;-57
2023/09/17 01:38:33;;;;;;;18.58;14.25;;;;;;;;;;5051867;28;20040;-56
2023/09/17 01:41:01;;;;;;;18.70;14.95;;;;;;;;;;5050825;28;20458;-56
2023/09/17 01:43:27;;;;;;;19.08;14.25;;;;;;;;;;5040589;28;20625;-57
2023/09/17 01:45:53;;;;;;;18.90;14.05;;;;;;;;;;5049917;28;20071;-56
2023/09/17 01:48:20;;;;;;;20.10;14.43;;;;;;;;;;5050339;28;20087;-57
2023/09/17 01:50:47;;;;;;;17.40;14.18;;;;;;;;;;5040766;28;20033;-56
2023/09/17 01:53:12;;;;;;;19.42;14.68;;;;;;;;;;5047904;28;20037;-58
2023/09/17 01:55:41;;;;;;;18.10;14.00;;;;;;;;;;5050383;28;20078;-57
2023/09/17 01:58:09;;;;;;;16.80;14.30;;;;;;;;;;5046435;28;20037;-58
2023/09/17 02:00:35;;;;;;;19.60;14.23;;;;;;;;;;5050686;28;20041;-57
2023/09/17 02:03:02;;;;;;;20.25;14.35;;;;;;;;;;5049442;28;20037;-56
2023/09/17 02:05:28;;;;;;;19.63;14.73;;;;;;;;;;5049776;28;20036;-56
2023/09/17 02:07:53;;;;;;;20.20;14.88;;;;;;;;;;5047919;28;20456;-57
2023/09/17 02:10:20;;;;;;;18.73;14.07;;;;;;;;;;5045764;28;20040;-56
2023/09/17 02:12:46;;;;;;;19.83;15.07;;;;;;;;;;5045068;28;20230;-57
2023/09/17 02:15:11;;;;;;;19.00;14.02;;;;;;;;;;5046714;28;20450;-55
2023/09/17 02:17:38;;;;;;;19.52;15.15;;;;;;;;;;5049725;28;20045;-56
2023/09/17 02:20:08;;;;;;;17.33;13.98;;;;;;;;;;5040808;28;20948;-57
2023/09/17 02:22:34;;;;;;;19.95;14.65;;;;;;;;;;5050901;28;20029;-57
2023/09/17 02:24:59;;;;;;;17.73;14.00;;;;;;;;;;5050563;28;20035;-58
2023/09/17 02:27:25;;;;;;;16.33;13.65;;;;;;;;;;5049756;28;20025;-57
2023/09/17 02:29:50;;;;;;;17.05;13.55;;;;;;;;;;5046828;28;20123;-57
2023/09/17 02:32:16;;;;;;;18.88;13.43;;;;;;;;;;5050560;28;20052;-57
2023/09/17 02:34:41;;;;;;;17.70;13.43;;;;;;;;;;5044416;28;20045;-56
2023/09/17 02:37:07;;;;;;;18.25;13.80;;;;;;;;;;5049594;28;20690;-57
2023/09/17 02:39:32;;;;;;;18.13;14.25;;;;;;;;;;5047410;28;20040;-53
2023/09/17 02:41:58;;;;;;;16.23;12.52;;;;;;;;;;5049477;28;20466;-58
2023/09/17 02:44:25;;;;;;;16.85;12.65;;;;;;;;;;5048136;28;20029;-57
2023/09/17 02:46:51;;;;;;;15.57;12.77;;;;;;;;;;5046940;28;20041;-58
2023/09/17 02:49:16;;;;;;;17.35;13.25;;;;;;;;;;5049424;28;20033;-57
2023/09/17 02:51:42;;;;;;;14.90;12.57;;;;;;;;;;5043474;28;20034;-56
2023/09/17 02:54:07;;;;;;;16.30;12.43;;;;;;;;;;5042936;28;20025;-56
2023/09/17 02:56:33;;;;;;;16.70;12.55;;;;;;;;;;5048574;28;20393;-56
2023/09/17 02:58:58;;;;;;;16.85;12.90;;;;;;;;;;5044829;28;20470;-55
2023/09/17 03:01:24;;;;;;;16.20;12.55;;;;;;;;;;5038717;28;20065;-57
2023/09/17 03:03:50;;;;;;;16.75;12.35;;;;;;;;;;5043561;28;20063;-57
2023/09/17 03:06:16;;;;;;;16.35;12.02;;;;;;;;;;5049065;28;20112;-57
2023/09/17 03:08:42;;;;;;;15.27;12.07;;;;;;;;;;5049594;28;20478;-57
2023/09/17 03:11:10;;;;;;;15.52;11.52;;;;;;;;;;5048028;28;20033;-57
2023/09/17 03:13:36;;;;;;;15.82;12.73;;;;;;;;;;5047031;28;20044;-55
2023/09/17 03:16:01;;;;;;;15.43;12.15;;;;;;;;;;5048305;28;20053;-55
2023/09/17 03:18:27;;;;;;;16.48;11.95;;;;;;;;;;5045740;28;20029;-57
2023/09/17 03:20:53;;;;;;;18.67;11.93;;;;;;;;;;5039049;28;20026;-54
2023/09/17 03:23:18;;;;;;;17.45;13.07;;;;;;;;;;5041706;28;20036;-58
2023/09/17 03:25:44;;;;;;;14.57;11.63;;;;;;;;;;5043556;28;20474;-53
2023/09/17 03:28:11;;;;;;;14.35;12.07;;;;;;;;;;5047140;28;20350;-56
2023/09/17 03:30:37;;;;;;;16.00;11.75;;;;;;;;;;5047767;28;20420;-57
2023/09/17 03:33:03;;;;;;;16.08;12.90;;;;;;;;;;5040138;28;20048;-56
2023/09/17 03:35:28;;;;;;;15.13;11.77;;;;;;;;;;5045668;28;20060;-57
2023/09/17 03:37:54;;;;;;;15.05;12.18;;;;;;;;;;5038268;28;20522;-55
2023/09/17 03:40:19;;;;;;;13.60;11.35;;;;;;;;;;5043671;28;20356;-56
2023/09/17 03:42:46;;;;;;;14.77;11.82;;;;;;;;;;5044980;28;20033;-57
2023/09/17 03:45:13;;;;;;;14.88;11.60;;;;;;;;;;5041058;28;20423;-57
2023/09/17 03:47:43;;;;;;;15.18;11.35;;;;;;;;;;5052417;28;20029;-58
2023/09/17 03:50:11;;;;;;;14.15;11.57;;;;;;;;;;5050730;28;20385;-57
2023/09/17 03:52:38;;;;;;;15.82;12.18;;;;;;;;;;5050089;28;20041;-58
2023/09/17 03:55:05;;;;;;;17.60;13.50;;;;;;;;;;5043996;28;20086;-56
2023/09/17 03:57:33;;;;;;;18.88;13.82;;;;;;;;;;5048443;28;20029;-57
2023/09/17 03:59:58;;;;;;;18.92;13.68;;;;;;;;;;5042398;28;20098;-57
2023/09/17 04:02:24;;;;;;;20.45;14.23;;;;;;;;;;5053852;28;20473;-57
2023/09/17 04:04:50;;;;;;;22.63;14.85;;;;;;;;;;5051406;28;20025;-57
2023/09/17 04:07:15;;;;;;;20.95;15.65;;;;;;;;;;5033288;28;20045;-56
2023/09/17 04:09:42;;;;;;;22.08;15.55;;;;;;;;;;5034813;28;20034;-56
2023/09/17 04:12:07;;;;;;;20.80;16.52;;;;;;;;;;5041485;28;20025;-56
2023/09/17 04:14:33;;;;;;;23.63;16.60;;;;;;;;;;5047249;28;20389;-57
2023/09/17 04:17:05;;;;;;;21.30;16.00;;;;;;;;;;5048401;28;20473;-57
2023/09/17 04:19:32;;;;;;;23.55;16.77;;;;;;;;;;5045880;28;20091;-59
2023/09/17 04:21:58;;;;;;;21.95;17.17;;;;;;;;;;5050524;28;20516;-56
2023/09/17 04:24:25;;;;;;;23.33;17.75;;;;;;;;;;5051541;28;20097;-58
2023/09/17 04:26:52;;;;;;;25.88;17.67;;;;;;;;;;5047184;28;20048;-57
2023/09/17 04:29:18;;;;;;;23.05;17.58;;;;;;;;;;5049342;28;20021;-58
2023/09/17 04:31:44;;;;;;;24.58;18.10;;;;;;;;;;5052790;28;20029;-58
2023/09/17 04:34:11;;;;;;;22.77;17.52;;;;;;;;;;5052801;28;20029;-56
2023/09/17 04:36:37;;;;;;;24.67;18.60;;;;;;;;;;5053635;28;20473;-58
2023/09/17 04:39:03;;;;;;;24.42;18.23;;;;;;;;;;5050055;28;20067;-60
2023/09/17 04:41:28;;;;;;;25.92;18.73;;;;;;;;;;5047020;28;20029;-56
2023/09/17 04:43:53;;;;;;;22.85;17.65;;;;;;;;;;5039867;28;20037;-57
2023/09/17 04:46:19;;;;;;;26.30;19.52;;;;;;;;;;5038774;28;20036;-57
2023/09/17 04:48:44;;;;;;;23.02;18.25;;;;;;;;;;5047446;28;20033;-57
2023/09/17 04:51:15;;;;;;;22.67;17.88;;;;;;;;;;5048280;28;20037;-57
2023/09/17 04:53:41;;;;;;;24.40;18.77;;;;;;;;;;5042839;28;20032;-58
2023/09/17 04:56:06;;;;;;;28.85;19.13;;;;;;;;;;5050620;28;20040;-54
2023/09/17 04:58:33;;;;;;;23.70;18.40;;;;;;;;;;5053176;28;20327;-57
2023/09/17 05:00:58;;;;;;;26.10;19.02;;;;;;;;;;5051693;28;20119;-57
2023/09/17 05:03:24;;;;;;;26.48;19.20;;;;;;;;;;5053720;28;20137;-57
2023/09/17 05:05:49;;;;;;;27.10;19.02;;;;;;;;;;5049808;28;20057;-56
2023/09/17 05:08:16;;;;;;;24.98;19.45;;;;;;;;;;5041243;28;20025;-56
2023/09/17 05:10:42;;;;;;;25.45;18.92;;;;;;;;;;5053296;28;20060;-57
2023/09/17 05:13:08;;;;;;;24.33;19.52;;;;;;;;;;5046815;28;20102;-55
2023/09/17 05:15:34;;;;;;;25.55;19.05;;;;;;;;;;5052724;28;20112;-58
2023/09/17 05:18:05;;;;;;;28.30;20.85;;;;;;;;;;5051819;28;20501;-56
2023/09/17 05:20:30;;;;;;;;;;;;;;;;;;5050302;28;20038;-57
2023/09/17 05:22:55;;;;;;;29.83;21.15;;;;;;;;;;5050699;28;19943;-59
2023/09/17 05:25:21;;;;;;;32.38;22.40;;;;;;;;;;5052195;28;20041;-56
2023/09/17 05:27:46;;;;;;;33.53;23.20;;;;;;;;;;5053833;28;20373;-58
2023/09/17 05:30:12;;;;;;;36.40;23.83;;;;;;;;;;5037396;28;20040;-57
2023/09/17 05:32:38;;;;;;;34.65;24.58;;;;;;;;;;5044199;28;20430;-57
2023/09/17 05:35:03;;;;;;;38.10;25.67;;;;;;;;;;5052492;28;20033;-56
2023/09/17 05:37:30;;;;;;;38.15;26.67;;;;;;;;;;5051329;28;20047;-57
2023/09/17 05:39:56;;;;;;;39.15;26.83;;;;;;;;;;5052096;28;20071;-56
2023/09/17 05:42:21;;;;;;;40.28;27.00;;;;;;;;;;5045985;28;20025;-56
2023/09/17 05:44:46;;;;;;;43.25;27.65;;;;;;;;;;5043047;28;20037;-54
2023/09/17 05:47:12;;;;;;;42.90;28.63;;;;;;;;;;5051033;28;20029;-52
2023/09/17 05:49:37;;;;;;;45.13;29.42;;;;;;;;;;5039459;28;20474;-56
2023/09/17 05:52:03;;;;;;;45.20;29.55;;;;;;;;;;5036996;28;20374;-55
2023/09/17 05:54:28;;;;;;;46.35;29.20;;;;;;;;;;5033079;28;20117;-56
2023/09/17 05:56:54;;;;;;;56.10;31.92;;;;;;;;;;5039324;28;20025;-52
2023/09/17 05:59:19;;;;;;;52.83;31.33;;;;;;;;;;5050628;28;20333;-56
2023/09/17 06:01:45;;;;;;;48.15;30.65;;;;;;;;;;5052098;28;20040;-54
2023/09/17 06:04:10;;;;;;;52.13;31.90;;;;;;;;;;5051796;28;20036;-55
2023/09/17 06:06:36;;;;;;;51.67;32.78;;;;;;;;;;5045930;28;20154;-55
2023/09/17 06:09:01;;;;;;;49.63;32.08;;;;;;;;;;5048485;28;20082;-58
2023/09/17 06:11:27;;;;;;;50.47;31.05;;;;;;;;;;5051809;28;20029;-57
2023/09/17 06:13:52;;;;;;;49.20;31.10;;;;;;;;;;5050138;28;20382;-54
2023/09/17 06:16:18;;;;;;;51.40;30.80;;;;;;;;;;5048076;28;20148;-56
2023/09/17 06:18:43;;;;;;;48.08;31.90;;;;;;;;;;5051077;28;20078;-56
2023/09/17 06:21:09;;;;;;;56.55;32.08;;;;;;;;;;5038873;28;20037;-58
2023/09/17 06:23:35;;;;;;;49.58;31.33;;;;;;;;;;5046749;28;20431;-57
2023/09/17 06:26:01;;;;;;;46.65;29.95;;;;;;;;;;5049555;28;20490;-59
2023/09/17 06:28:26;;;;;;;46.58;30.98;;;;;;;;;;5046191;28;20035;-57
2023/09/17 06:30:52;;;;;;;51.60;32.05;;;;;;;;;;5043069;28;20417;-58
2023/09/17 06:33:18;;;;;;;47.35;31.10;;;;;;;;;;5042739;28;20525;-57
2023/09/17 06:35:46;;;;;;;47.40;31.77;;;;;;;;;;5037464;28;20044;-57
2023/09/17 06:38:11;;;;;;;48.50;30.67;;;;;;;;;;5048800;28;20029;-54
2023/09/17 06:40:37;;;;;;;46.75;31.02;;;;;;;;;;5051941;28;20032;-56
2023/09/17 06:43:02;;;;;;;44.13;30.45;;;;;;;;;;5048939;28;20072;-56
2023/09/17 06:45:28;;;;;;;44.15;30.88;;;;;;;;;;5050049;28;20028;-56
2023/09/17 06:47:53;;;;;;;43.83;30.77;;;;;;;;;;5049198;28;20406;-57
2023/09/17 06:50:18;;;;;;;48.35;30.90;;;;;;;;;;5049396;28;20102;-57
2023/09/17 06:52:44;;;;;;;50.50;31.13;;;;;;;;;;5050247;28;20041;-57
2023/09/17 06:55:09;;;;;;;44.20;30.10;;;;;;;;;;5048677;28;20393;-57
2023/09/17 06:57:35;;;;;;;46.90;30.98;;;;;;;;;;5038476;28;20060;-56
2023/09/17 07:00:00;;;;;;;47.97;31.67;;;;;;;;;;5051414;28;20059;-59
2023/09/17 07:02:26;;;;;;;52.08;32.42;;;;;;;;;;5050494;28;20028;-57
2023/09/17 07:04:51;;;;;;;49.08;32.00;;;;;;;;;;5045494;28;20093;-58
2023/09/17 07:07:16;;;;;;;46.20;31.80;;;;;;;;;;5047670;28;20029;-53
2023/09/17 07:09:43;;;;;;;47.67;31.08;;;;;;;;;;5050954;28;20436;-56
2023/09/17 07:12:08;;;;;;;47.63;31.17;;;;;;;;;;5045805;28;20040;-57
2023/09/17 07:14:33;;;;;;;50.85;31.55;;;;;;;;;;5044524;28;20021;-57
2023/09/17 07:16:59;;;;;;;46.17;31.27;;;;;;;;;;5041407;28;20493;-55
2023/09/17 07:19:24;;;;;;;48.03;31.63;;;;;;;;;;5049266;28;20116;-57
2023/09/17 07:21:49;;;;;;;43.92;30.23;;;;;;;;;;5042598;28;20098;-55
2023/09/17 07:24:15;;;;;;;44.28;29.40;;;;;;;;;;5047752;28;20033;-57
2023/09/17 07:26:42;;;;;;;42.03;29.02;;;;;;;;;;5050147;28;20470;-54
2023/09/17 07:29:07;;;;;;;39.08;27.92;;;;;;;;;;5048416;28;20041;-56
2023/09/17 07:31:33;;;;;;;40.25;28.35;;;;;;;;;;5051110;28;20029;-57
2023/09/17 07:33:58;;;;;;;38.40;28.42;;;;;;;;;;5049338;28;20024;-57
2023/09/17 07:36:23;;;;;;;41.50;28.17;;;;;;;;;;5048449;28;20555;-57
2023/09/17 07:38:49;;;;;;;40.88;28.52;;;;;;;;;;5047983;28;20047;-57
2023/09/17 07:41:14;;;;;;;33.90;26.15;;;;;;;;;;5048948;28;20051;-57
2023/09/17 07:43:40;;;;;;;34.63;25.13;;;;;;;;;;5034844;28;20037;-58
2023/09/17 07:46:06;;;;;;;32.90;25.10;;;;;;;;;;5048934;28;20488;-59
2023/09/17 07:48:31;;;;;;;30.75;23.88;;;;;;;;;;5033683;28;20076;-58
2023/09/17 07:50:58;;;;;;;30.98;24.05;;;;;;;;;;5037230;28;20033;-58
2023/09/17 07:53:24;;;;;;;30.58;22.67;;;;;;;;;;5034328;28;20189;-57
2023/09/17 07:55:50;;;;;;;28.95;21.98;;;;;;;;;;5030093;28;20037;-56
2023/09/17 07:58:15;;;;;;;30.83;21.80;;;;;;;;;;5030547;28;20034;-57
2023/09/17 08:00:41;;;;;;;30.38;22.15;;;;;;;;;;5031216;28;20037;-56
2023/09/17 08:03:07;;;;;;;29.75;21.83;;;;;;;;;;5044766;28;20033;-59
2023/09/17 08:05:33;;;;;;;28.13;22.40;;;;;;;;;;5050624;28;20458;-58
2023/09/17 08:07:59;;;;;;;29.63;21.88;;;;;;;;;;5049229;28;20029;-57
2023/09/17 08:10:25;;;;;;;29.33;21.15;;;;;;;;;;5035176;28;20032;-58
2023/09/17 08:12:50;;;;;;;26.00;20.45;;;;;;;;;;5036500;28;20036;-57
2023/09/17 08:15:16;;;;;;;26.38;20.52;;;;;;;;;;5049515;28;20028;-57
2023/09/17 08:17:43;;;;;;;24.60;19.33;;;;;;;;;;5050903;28;20085;-57
2023/09/17 08:20:09;;;;;;;26.35;20.20;;;;;;;;;;5046391;28;20041;-57
2023/09/17 08:22:37;;;;;;;25.67;19.05;;;;;;;;;;5049529;28;20378;-55
2023/09/17 08:25:03;;;;;;;23.00;18.73;;;;;;;;;;5047530;28;20501;-56
2023/09/17 08:27:28;;;;;;;23.70;18.38;;;;;;;;;;5029140;28;20121;-57
2023/09/17 08:29:53;;;;;;;21.85;17.52;;;;;;;;;;5044028;28;20025;-52
2023/09/17 08:32:19;;;;;;;20.77;16.88;;;;;;;;;;5036357;28;20030;-58
2023/09/17 08:34:44;;;;;;;19.40;15.32;;;;;;;;;;5051924;28;20469;-54
2023/09/17 08:37:10;;;;;;;19.00;15.38;;;;;;;;;;5048251;28;20021;-54
2023/09/17 08:39:35;;;;;;;16.85;13.45;;;;;;;;;;5054385;28;20104;-53
2023/09/17 08:42:01;;;;;;;15.52;12.40;;;;;;;;;;5053796;28;20036;-55
2023/09/17 08:44:32;;;;;;;14.32;11.60;;;;;;;;;;5053381;28;20033;-49
2023/09/17 08:46:59;;;;;;;15.63;12.45;;;;;;;;;;5053117;28;20405;-51
2023/09/17 08:49:25;;;;;;;16.90;12.90;;;;;;;;;;5053218;28;20102;-51
2023/09/17 08:51:53;;;;;;;14.73;11.18;;;;;;;;;;5052273;28;20425;-53
2023/09/17 08:54:37;;;;;;;16.65;11.73;;;;;;;;;;5053328;28;20032;-53
2023/09/17 08:57:05;;;;;;;8.27;6.93;;;;;;;;;;5054232;28;20405;-51
2023/09/17 08:59:37;;;;;;;8.65;6.57;;;;;;;;;;5052072;28;20036;-49
2023/09/17 09:02:07;;;;;;;7.75;6.10;;;;;;;;;;5053037;28;20032;-54
2023/09/17 09:04:36;;;;;;;8.57;5.63;;;;;;;;;;5053901;28;20118;-51
2023/09/17 09:07:03;;;;;;;7.35;5.65;;;;;;;;;;5050880;28;20037;-53
2023/09/17 09:09:34;;;;;;;7.78;5.07;;;;;;;;;;5052584;28;20163;-55
2023/09/17 09:11:59;;;;;;;8.52;5.32;;;;;;;;;;5052333;28;20035;-54
2023/09/17 09:14:25;;;;;;;6.43;5.00;;;;;;;;;;5052808;28;20029;-53
2023/09/17 09:16:51;;;;;;;8.30;5.20;;;;;;;;;;5053138;28;20041;-52
2023/09/17 09:19:16;;;;;;;7.65;5.18;;;;;;;;;;5052705;28;20033;-53
2023/09/17 09:21:42;;;;;;;6.40;5.03;;;;;;;;;;5049117;28;20037;-54
2023/09/17 09:24:08;;;;;;;5.93;4.80;;;;;;;;;;5052148;28;20035;-55
2023/09/17 09:26:37;;;;;;;7.32;4.85;;;;;;;;;;5052669;28;20049;-55
2023/09/17 09:29:04;;;;;;;8.07;4.53;;;;;;;;;;5053597;28;20033;-54
2023/09/17 09:31:31;;;;;;;7.40;4.43;;;;;;;;;;5052399;28;20086;-54
2023/09/17 09:34:00;;;;;;;5.78;4.40;;;;;;;;;;5050507;28;20029;-54
2023/09/17 09:36:28;;;;;;;6.07;4.57;;;;;;;;;;5051686;28;20028;-54
2023/09/17 09:38:56;;;;;;;7.25;4.60;;;;;;;;;;5053292;28;20028;-54
2023/09/17 09:41:24;;;;;;;6.50;4.13;;;;;;;;;;5051950;28;20037;-54
2023/09/17 09:43:50;;;;;;;6.15;4.13;;;;;;;;;;5053147;28;20031;-51
2023/09/17 09:46:15;;;;;;;5.68;4.50;;;;;;;;;;5052051;28;20115;-51
2023/09/17 09:48:41;;;;;;;5.85;4.30;;;;;;;;;;5053246;28;20025;-51
2023/09/17 09:51:07;;;;;;;6.60;4.10;;;;;;;;;;5050278;28;20465;-53
2023/09/17 09:53:32;;;;;;;7.07;3.90;;;;;;;;;;5050260;28;20028;-52
2023/09/17 09:55:58;;;;;;;6.38;4.10;;;;;;;;;;5052807;28;20036;-50
2023/09/17 09:58:24;;;;;;;6.18;3.80;;;;;;;;;;5052237;28;20115;-50
2023/09/17 10:00:50;;;;;;;5.93;3.92;;;;;;;;;;5053027;28;20462;-53
2023/09/17 10:03:17;;;;;;;6.25;3.80;;;;;;;;;;5051622;28;20033;-54
2023/09/17 10:05:44;;;;;;;5.20;3.95;;;;;;;;;;5052979;28;20042;-51
2023/09/17 10:08:12;;;;;;;4.90;3.75;;;;;;;;;;5051632;28;20465;-55
2023/09/17 10:10:38;;;;;;;5.88;4.05;;;;;;;;;;5051009;28;20037;-51
2023/09/17 10:13:08;;;;;;;4.97;4.25;;;;;;;;;;5052537;28;20112;-55
2023/09/17 10:15:35;;;;;;;7.90;4.25;;;;;;;;;;5051747;28;20082;-52
2023/09/17 10:18:01;;;;;;;6.88;4.10;;;;;;;;;;5052142;28;20140;-51
2023/09/17 10:20:28;;;;;;;6.25;4.30;;;;;;;;;;5051735;28;20029;-55
2023/09/17 10:22:55;;;;;;;5.32;4.10;;;;;;;;;;5049641;28;20120;-53
2023/09/17 10:25:22;;;;;;;5.65;4.10;;;;;;;;;;5051134;28;20079;-51
2023/09/17 10:27:50;;;;;;;4.60;3.97;;;;;;;;;;5051188;28;20039;-55
2023/09/17 10:30:17;;;;;;;5.72;3.95;;;;;;;;;;5051402;28;20025;-55
2023/09/17 10:32:44;;;;;;;5.30;3.95;;;;;;;;;;5050793;28;20124;-54
2023/09/17 10:35:10;;;;;;;5.55;4.20;;;;;;;;;;5048694;28;20037;-53
2023/09/17 10:37:38;;;;;;;6.97;4.35;;;;;;;;;;5051554;28;20043;-53
2023/09/17 10:40:09;;;;;;;6.47;4.15;;;;;;;;;;5051067;28;20063;-54
2023/09/17 10:42:36;;;;;;;6.25;4.20;;;;;;;;;;5051287;28;20643;-55
2023/09/17 10:45:07;;;;;;;7.32;4.00;;;;;;;;;;5050900;28;20043;-53
2023/09/17 10:47:35;;;;;;;6.30;4.03;;;;;;;;;;5051469;28;20036;-50
2023/09/17 10:50:04;;;;;;;8.77;4.25;;;;;;;;;;5050476;28;20055;-54
2023/09/17 10:52:31;;;;;;;5.80;4.05;;;;;;;;;;5051562;28;20108;-54
2023/09/17 10:54:56;;;;;;;5.43;3.90;;;;;;;;;;5051759;28;20131;-56
2023/09/17 10:57:31;;;;;;;5.57;3.80;;;;;;;;;;5051142;28;20065;-55
2023/09/17 10:59:58;;;;;;;4.95;3.88;;;;;;;;;;5051884;28;20037;-54
2023/09/17 11:02:26;;;;;;;6.32;3.80;;;;;;;;;;5051028;28;20025;-55
2023/09/17 11:04:52;;;;;;;5.88;3.80;;;;;;;;;;5050718;28;20045;-53
2023/09/17 11:07:19;;;;;;;5.70;3.70;;;;;;;;;;5049188;28;20056;-55
2023/09/17 11:09:45;;;;;;;6.95;3.65;;;;;;;;;;5051670;28;20103;-53
2023/09/17 11:12:11;;;;;;;5.57;3.38;;;;;;;;;;5051624;28;20163;-53
2023/09/17 11:14:37;;;;;;;5.47;3.30;;;;;;;;;;5050939;28;20021;-55
2023/09/17 11:17:04;;;;;;;5.22;3.42;;;;;;;;;;5051446;28;20044;-51
2023/09/17 11:19:30;;;;;;;4.70;3.55;;;;;;;;;;5050747;28;20032;-52
2023/09/17 11:22:01;;;;;;;6.20;3.50;;;;;;;;;;5049134;28;20190;-53
2023/09/17 11:24:27;;;;;;;5.13;3.50;;;;;;;;;;5050563;28;20033;-55
2023/09/17 11:26:56;;;;;;;5.25;3.20;;;;;;;;;;5051693;28;20078;-56
2023/09/17 11:29:40;;;;;;;4.25;3.35;;;;;;;;;;5049368;28;20082;-52
2023/09/17 11:32:06;;;;;;;5.05;3.20;;;;;;;;;;5051267;28;20057;-51
2023/09/17 11:34:34;;;;;;;4.65;3.50;;;;;;;;;;5049582;28;20572;-56
2023/09/17 11:37:00;;;;;;;5.38;3.58;;;;;;;;;;5051579;28;20025;-56
2023/09/17 11:39:26;;;;;;;5.55;3.40;;;;;;;;;;5050995;28;20025;-54
2023/09/17 11:41:54;;;;;;;4.38;3.67;;;;;;;;;;5051252;28;20025;-54
2023/09/17 11:44:22;;;;;;;5.80;3.70;;;;;;;;;;5050754;28;20025;-54
2023/09/17 11:46:48;;;;;;;5.63;3.38;;;;;;;;;;5051501;28;20039;-56
2023/09/17 11:49:14;;;;;;;6.03;3.38;;;;;;;;;;5050450;28;20108;-54
2023/09/17 11:51:44;;;;;;;4.35;3.03;;;;;;;;;;5049771;28;20095;-56
2023/09/17 11:54:18;;;;;;;4.30;2.92;;;;;;;;;;5051309;28;20439;-50
2023/09/17 11:56:49;;;;;;;4.18;3.22;;;;;;;;;;5051070;28;20041;-54
2023/09/17 11:59:18;;;;;;;4.35;3.30;;;;;;;;;;5050135;28;20032;-55
2023/09/17 12:01:49;;;;;;;4.78;3.13;;;;;;;;;;5050672;28;20029;-54
2023/09/17 12:04:16;;;;;;;4.40;3.13;;;;;;;;;;5050286;28;20041;-56
2023/09/17 12:06:46;;;;;;;4.55;2.95;;;;;;;;;;5052802;28;20462;-55
2023/09/17 12:11:56;;;;;;;5.18;3.40;;;;;;;;;;5054119;28;20033;-53
2023/09/17 12:14:22;;;;;;;3.83;3.10;;;;;;;;;;5054005;28;20021;-55
2023/09/17 12:16:50;;;;;;;4.43;3.10;;;;;;;;;;5054439;28;20052;-53
2023/09/17 12:19:19;;;;;;;5.45;3.20;;;;;;;;;;5054081;28;20043;-55
2023/09/17 12:21:47;;;;;;;4.32;3.15;;;;;;;;;;5054212;28;20033;-55
2023/09/17 12:24:35;;;;;;;4.72;3.10;;;;;;;;;;5055099;28;20036;-55
2023/09/17 12:29:36;;;;;;;3.97;3.20;;;;;;;;;;5053890;28;20043;-54
2023/09/17 12:32:03;;;;;;;5.68;3.30;;;;;;;;;;5053377;28;20044;-55
2023/09/17 12:34:29;;;;;;;4.10;3.00;;;;;;;;;;5052847;28;20065;-55
2023/09/17 12:36:54;;;;;;;4.88;3.30;;;;;;;;;;5053384;28;20448;-56
2023/09/17 12:39:20;;;;;;;4.50;3.40;;;;;;;;;;5036733;28;20028;-58
2023/09/17 12:41:45;;;;;;;4.13;3.30;;;;;;;;;;5053976;28;20029;-58
2023/09/17 12:44:14;;;;;;;5.35;3.40;;;;;;;;;;5052904;28;20036;-55
2023/09/17 12:46:40;;;;;;;4.35;3.45;;;;;;;;;;5053401;28;20057;-53
2023/09/17 12:49:07;;;;;;;4.03;3.20;;;;;;;;;;5053387;28;20072;-54
2023/09/17 12:51:32;;;;;;;5.72;3.40;;;;;;;;;;5053220;28;20052;-52
2023/09/17 12:53:58;;;;;;;9.23;3.30;;;;;;;;;;5054439;28;20056;-52
2023/09/17 12:56:27;;;;;;;5.40;3.55;;;;;;;;;;5053831;28;20033;-56
2023/09/17 12:58:52;;;;;;;4.85;3.50;;;;;;;;;;5054152;28;20527;-55
2023/09/17 13:01:18;;;;;;;7.88;3.30;;;;;;;;;;5054107;28;20111;-54
2023/09/17 13:03:55;;;;;;;4.90;3.20;;;;;;;;;;5051547;28;20592;-53
2023/09/17 13:06:23;;;;;;;5.22;3.50;;;;;;;;;;5052948;28;20116;-53
2023/09/17 13:08:49;;;;;;;8.55;3.85;;;;;;;;;;5053673;28;20025;-51
2023/09/17 13:11:15;;;;;;;5.10;3.50;;;;;;;;;;5053963;28;20175;-53
2023/09/17 13:13:48;;;;;;;4.53;3.35;;;;;;;;;;5051574;28;20551;-54
2023/09/17 13:16:15;;;;;;;4.50;3.50;;;;;;;;;;5053032;28;20138;-54
2023/09/17 13:18:41;;;;;;;4.80;3.35;;;;;;;;;;5052211;28;20040;-54
2023/09/17 13:21:07;;;;;;;5.07;3.38;;;;;;;;;;5053785;28;20079;-55
2023/09/17 13:23:36;;;;;;;4.35;3.47;;;;;;;;;;5053015;28;20025;-56
2023/09/17 13:26:06;;;;;;;4.15;3.40;;;;;;;;;;5052488;28;20140;-53
2023/09/17 13:28:32;;;;;;;7.40;3.38;;;;;;;;;;5052491;28;20092;-51
2023/09/17 13:31:03;;;;;;;5.30;3.80;;;;;;;;;;5053699;28;20032;-56
2023/09/17 13:33:33;;;;;;;8.65;3.65;;;;;;;;;;5049913;28;20090;-56
2023/09/17 13:36:01;;;;;;;6.38;3.60;;;;;;;;;;5051687;28;20393;-55
2023/09/17 13:38:29;;;;;;;5.50;3.80;;;;;;;;;;5051403;28;20056;-56
2023/09/17 13:40:55;;;;;;;6.05;3.70;;;;;;;;;;5042037;28;20035;-57
2023/09/17 13:43:20;;;;;;;4.13;3.67;;;;;;;;;;5043459;28;20029;-56
2023/09/17 13:45:57;;;;;;;6.80;3.80;;;;;;;;;;5052155;28;20551;-56
2023/09/17 13:48:24;;;;;;;4.55;3.55;;;;;;;;;;5052052;28;20033;-54
2023/09/17 13:50:49;;;;;;;4.72;3.25;;;;;;;;;;5051949;28;20035;-54
2023/09/17 13:53:15;;;;;;;5.05;3.65;;;;;;;;;;5052907;28;20443;-54
2023/09/17 13:55:41;;;;;;;4.70;3.20;;;;;;;;;;5052260;28;20036;-54
2023/09/17 13:58:07;;;;;;;4.50;3.63;;;;;;;;;;5052894;28;20028;-56
2023/09/17 14:00:32;;;;;;;4.38;3.50;;;;;;;;;;5046124;28;20446;-55
2023/09/17 14:03:07;;;;;;;4.10;3.20;;;;;;;;;;5048661;28;20480;-53
2023/09/17 14:05:33;;;;;;;4.45;3.20;;;;;;;;;;5050689;28;20025;-52
2023/09/17 14:07:59;;;;;;;4.22;3.20;;;;;;;;;;5050163;28;20040;-55
2023/09/17 14:10:25;;;;;;;3.75;3.03;;;;;;;;;;5052534;28;20025;-59
2023/09/17 14:12:50;;;;;;;3.83;3.08;;;;;;;;;;5052226;28;20040;-55
2023/09/17 14:15:16;;;;;;;7.03;3.25;;;;;;;;;;5052645;28;20032;-53
2023/09/17 14:17:41;;;;;;;4.90;3.17;;;;;;;;;;5051517;28;20071;-55
2023/09/17 14:20:07;;;;;;;3.63;2.92;;;;;;;;;;5034856;28;20078;-53
2023/09/17 14:22:32;;;;;;;4.60;3.20;;;;;;;;;;5049951;28;20108;-55
2023/09/17 14:24:58;;;;;;;4.20;3.00;;;;;;;;;;5050858;28;20043;-54
2023/09/17 14:27:23;;;;;;;4.03;3.20;;;;;;;;;;5047425;28;20033;-52